sensor_id;sensor_type;location;lat;lon;timestamp;P1;durP1;ratioP1;P2;durP2;ratioP2
10890;SDS011;5498;50.928;11.598;2022-10-16T00:02:00;1053.63;;;958.83;;
10890;SDS011;5498;50.928;11.598;2022-10-16T00:05:03;1047.30;;;952.43;;
10890;SDS011;5498;50.928;11.598;2022-10-16T00:08:05;1033.07;;;939.20;;
10890;SDS011;5498;50.928;11.598;2022-10-16T00:11:10;1031.43;;;937.23;;
10890;SDS011;5498;50.928;11.598;2022-10-16T00:14:14;1035.83;;;942.10;;
10890;SDS011;5498;50.928;11.598;2022-10-16T00:17:16;1039.23;;;945.27;;
10890;SDS011;5498;50.928;11.598;2022-10-16T00:20:18;1039.37;;;945.17;;
10890;SDS011;5498;50.928;11.598;2022-10-16T00:23:20;1047.87;;;953.47;;
10890;SDS011;5498;50.928;11.598;2022-10-16T00:26:25;1046.47;;;952.17;;
10890;SDS011;5498;50.928;11.598;2022-10-16T00:29:28;1048.90;;;954.10;;
10890;SDS011;5498;50.928;11.598;2022-10-16T00:32:30;1048.03;;;953.27;;
10890;SDS011;5498;50.928;11.598;2022-10-16T00:35:32;1046.67;;;951.73;;
10890;SDS011;5498;50.928;11.598;2022-10-16T00:38:34;1048.60;;;954.00;;
10890;SDS011;5498;50.928;11.598;2022-10-16T00:41:39;1051.20;;;956.20;;
10890;SDS011;5498;50.928;11.598;2022-10-16T00:44:46;1047.17;;;952.43;;
10890;SDS011;5498;50.928;11.598;2022-10-16T00:47:52;1045.17;;;950.63;;
10890;SDS011;5498;50.928;11.598;2022-10-16T00:50:57;1044.40;;;949.67;;
10890;SDS011;5498;50.928;11.598;2022-10-16T00:53:59;1048.57;;;953.70;;
10890;SDS011;5498;50.928;11.598;2022-10-16T00:57:05;1044.60;;;949.73;;
10890;SDS011;5498;50.928;11.598;2022-10-16T01:00:10;1034.63;;;940.67;;
10890;SDS011;5498;50.928;11.598;2022-10-16T01:03:22;1024.90;;;931.50;;
10890;SDS011;5498;50.928;11.598;2022-10-16T01:06:30;1020.77;;;927.47;;
10890;SDS011;5498;50.928;11.598;2022-10-16T01:09:40;1022.37;;;928.93;;
10890;SDS011;5498;50.928;11.598;2022-10-16T01:12:56;1013.90;;;921.23;;
10890;SDS011;5498;50.928;11.598;2022-10-16T01:16:04;1011.73;;;918.97;;
10890;SDS011;5498;50.928;11.598;2022-10-16T01:19:12;1008.77;;;916.17;;
10890;SDS011;5498;50.928;11.598;2022-10-16T01:22:21;1002.87;;;910.80;;
10890;SDS011;5498;50.928;11.598;2022-10-16T01:25:29;997.33;;;905.03;;
10890;SDS011;5498;50.928;11.598;2022-10-16T01:28:48;1000.67;;;908.63;;
10890;SDS011;5498;50.928;11.598;2022-10-16T01:31:56;989.67;;;898.17;;
10890;SDS011;5498;50.928;11.598;2022-10-16T01:35:02;991.53;;;899.97;;
10890;SDS011;5498;50.928;11.598;2022-10-16T01:38:10;991.67;;;900.07;;
10890;SDS011;5498;50.928;11.598;2022-10-16T01:41:18;994.57;;;902.57;;
10890;SDS011;5498;50.928;11.598;2022-10-16T01:44:26;999.13;;;906.63;;
10890;SDS011;5498;50.928;11.598;2022-10-16T01:47:32;985.03;;;893.60;;
10890;SDS011;5498;50.928;11.598;2022-10-16T01:50:37;973.90;;;883.07;;
10890;SDS011;5498;50.928;11.598;2022-10-16T01:53:43;981.80;;;890.63;;
10890;SDS011;5498;50.928;11.598;2022-10-16T01:56:50;983.77;;;892.47;;
10890;SDS011;5498;50.928;11.598;2022-10-16T01:59:56;983.43;;;892.07;;
10890;SDS011;5498;50.928;11.598;2022-10-16T02:03:06;977.53;;;886.23;;
10890;SDS011;5498;50.928;11.598;2022-10-16T02:06:10;979.03;;;887.93;;
10890;SDS011;5498;50.928;11.598;2022-10-16T02:09:13;984.73;;;893.40;;
10890;SDS011;5498;50.928;11.598;2022-10-16T02:12:19;986.93;;;895.37;;
10890;SDS011;5498;50.928;11.598;2022-10-16T02:15:28;976.27;;;885.30;;
10890;SDS011;5498;50.928;11.598;2022-10-16T02:18:30;974.80;;;883.77;;
10890;SDS011;5498;50.928;11.598;2022-10-16T02:21:34;969.77;;;879.07;;
10890;SDS011;5498;50.928;11.598;2022-10-16T02:24:47;959.83;;;869.73;;
10890;SDS011;5498;50.928;11.598;2022-10-16T02:27:54;967.93;;;876.87;;
10890;SDS011;5498;50.928;11.598;2022-10-16T02:31:01;962.90;;;872.40;;
10890;SDS011;5498;50.928;11.598;2022-10-16T02:34:09;960.93;;;870.53;;
10890;SDS011;5498;50.928;11.598;2022-10-16T02:37:13;954.70;;;864.60;;
10890;SDS011;5498;50.928;11.598;2022-10-16T02:40:17;963.97;;;873.50;;
10890;SDS011;5498;50.928;11.598;2022-10-16T02:43:19;963.87;;;873.47;;
10890;SDS011;5498;50.928;11.598;2022-10-16T02:46:23;963.40;;;872.83;;
10890;SDS011;5498;50.928;11.598;2022-10-16T02:49:25;961.70;;;871.23;;
10890;SDS011;5498;50.928;11.598;2022-10-16T02:52:27;955.07;;;865.00;;
10890;SDS011;5498;50.928;11.598;2022-10-16T02:55:29;955.17;;;865.00;;
10890;SDS011;5498;50.928;11.598;2022-10-16T02:58:31;940.70;;;851.43;;
10890;SDS011;5498;50.928;11.598;2022-10-16T03:01:35;930.23;;;841.03;;
10890;SDS011;5498;50.928;11.598;2022-10-16T03:04:37;938.67;;;849.00;;
10890;SDS011;5498;50.928;11.598;2022-10-16T03:07:39;939.43;;;849.80;;
10890;SDS011;5498;50.928;11.598;2022-10-16T03:10:41;938.47;;;848.87;;
10890;SDS011;5498;50.928;11.598;2022-10-16T03:13:43;925.97;;;837.03;;
10890;SDS011;5498;50.928;11.598;2022-10-16T03:16:46;929.37;;;840.37;;
10890;SDS011;5498;50.928;11.598;2022-10-16T03:19:48;933.43;;;844.33;;
10890;SDS011;5498;50.928;11.598;2022-10-16T03:22:51;926.73;;;838.13;;
10890;SDS011;5498;50.928;11.598;2022-10-16T03:25:53;929.03;;;840.27;;
10890;SDS011;5498;50.928;11.598;2022-10-16T03:28:55;936.13;;;846.63;;
10890;SDS011;5498;50.928;11.598;2022-10-16T03:31:58;923.07;;;834.27;;
10890;SDS011;5498;50.928;11.598;2022-10-16T03:35:01;938.10;;;848.87;;
10890;SDS011;5498;50.928;11.598;2022-10-16T03:38:03;930.67;;;841.67;;
10890;SDS011;5498;50.928;11.598;2022-10-16T03:41:05;928.47;;;839.47;;
10890;SDS011;5498;50.928;11.598;2022-10-16T03:44:07;926.17;;;836.87;;
10890;SDS011;5498;50.928;11.598;2022-10-16T03:47:11;929.70;;;840.40;;
10890;SDS011;5498;50.928;11.598;2022-10-16T03:50:13;928.47;;;839.43;;
10890;SDS011;5498;50.928;11.598;2022-10-16T03:53:15;925.00;;;836.17;;
10890;SDS011;5498;50.928;11.598;2022-10-16T03:56:17;923.13;;;834.13;;
10890;SDS011;5498;50.928;11.598;2022-10-16T03:59:19;918.17;;;829.30;;
10890;SDS011;5498;50.928;11.598;2022-10-16T04:02:23;916.93;;;828.33;;
10890;SDS011;5498;50.928;11.598;2022-10-16T04:05:25;910.27;;;821.97;;
10890;SDS011;5498;50.928;11.598;2022-10-16T04:08:27;919.30;;;830.73;;
10890;SDS011;5498;50.928;11.598;2022-10-16T04:11:29;911.97;;;823.83;;
10890;SDS011;5498;50.928;11.598;2022-10-16T04:14:31;907.90;;;819.90;;
10890;SDS011;5498;50.928;11.598;2022-10-16T04:17:34;909.67;;;821.47;;
10890;SDS011;5498;50.928;11.598;2022-10-16T04:20:36;912.17;;;823.97;;
10890;SDS011;5498;50.928;11.598;2022-10-16T04:23:38;916.00;;;827.50;;
10890;SDS011;5498;50.928;11.598;2022-10-16T04:26:40;919.37;;;830.67;;
10890;SDS011;5498;50.928;11.598;2022-10-16T04:29:42;920.17;;;831.27;;
10890;SDS011;5498;50.928;11.598;2022-10-16T04:32:48;920.13;;;831.37;;
10890;SDS011;5498;50.928;11.598;2022-10-16T04:35:55;908.40;;;819.77;;
10890;SDS011;5498;50.928;11.598;2022-10-16T04:38:58;913.87;;;824.93;;
10890;SDS011;5498;50.928;11.598;2022-10-16T04:42:00;909.17;;;820.57;;
10890;SDS011;5498;50.928;11.598;2022-10-16T04:45:03;914.37;;;825.87;;
10890;SDS011;5498;50.928;11.598;2022-10-16T04:48:07;906.07;;;817.83;;
10890;SDS011;5498;50.928;11.598;2022-10-16T04:51:10;918.90;;;830.13;;
10890;SDS011;5498;50.928;11.598;2022-10-16T04:54:12;904.43;;;816.13;;
10890;SDS011;5498;50.928;11.598;2022-10-16T04:57:14;899.07;;;811.37;;
10890;SDS011;5498;50.928;11.598;2022-10-16T05:00:16;914.27;;;825.77;;
10890;SDS011;5498;50.928;11.598;2022-10-16T05:03:20;921.70;;;833.03;;
10890;SDS011;5498;50.928;11.598;2022-10-16T05:06:22;911.23;;;822.77;;
10890;SDS011;5498;50.928;11.598;2022-10-16T05:09:24;913.70;;;825.43;;
10890;SDS011;5498;50.928;11.598;2022-10-16T05:12:26;915.93;;;827.57;;
10890;SDS011;5498;50.928;11.598;2022-10-16T05:15:28;914.70;;;826.50;;
10890;SDS011;5498;50.928;11.598;2022-10-16T05:18:32;926.13;;;837.17;;
10890;SDS011;5498;50.928;11.598;2022-10-16T05:21:34;919.77;;;831.43;;
10890;SDS011;5498;50.928;11.598;2022-10-16T05:24:36;921.47;;;832.47;;
10890;SDS011;5498;50.928;11.598;2022-10-16T05:27:38;923.03;;;834.23;;
10890;SDS011;5498;50.928;11.598;2022-10-16T05:30:40;918.30;;;829.63;;
10890;SDS011;5498;50.928;11.598;2022-10-16T05:33:44;927.03;;;838.20;;
10890;SDS011;5498;50.928;11.598;2022-10-16T05:36:46;927.27;;;838.20;;
10890;SDS011;5498;50.928;11.598;2022-10-16T05:39:48;926.07;;;837.47;;
10890;SDS011;5498;50.928;11.598;2022-10-16T05:42:54;920.30;;;831.67;;
10890;SDS011;5498;50.928;11.598;2022-10-16T05:45:57;931.00;;;842.10;;
10890;SDS011;5498;50.928;11.598;2022-10-16T05:49:02;918.07;;;829.80;;
10890;SDS011;5498;50.928;11.598;2022-10-16T05:52:04;918.50;;;830.23;;
10890;SDS011;5498;50.928;11.598;2022-10-16T05:55:07;916.07;;;827.97;;
10890;SDS011;5498;50.928;11.598;2022-10-16T05:58:09;927.03;;;838.43;;
10890;SDS011;5498;50.928;11.598;2022-10-16T06:01:12;927.07;;;838.17;;
10890;SDS011;5498;50.928;11.598;2022-10-16T06:04:18;925.40;;;836.73;;
10890;SDS011;5498;50.928;11.598;2022-10-16T06:07:20;922.73;;;834.03;;
10890;SDS011;5498;50.928;11.598;2022-10-16T06:10:22;926.10;;;837.17;;
10890;SDS011;5498;50.928;11.598;2022-10-16T06:13:24;922.60;;;834.13;;
10890;SDS011;5498;50.928;11.598;2022-10-16T06:16:26;926.47;;;837.97;;
10890;SDS011;5498;50.928;11.598;2022-10-16T06:19:30;922.80;;;834.37;;
10890;SDS011;5498;50.928;11.598;2022-10-16T06:22:32;925.53;;;837.17;;
10890;SDS011;5498;50.928;11.598;2022-10-16T06:25:34;931.70;;;842.63;;
10890;SDS011;5498;50.928;11.598;2022-10-16T06:28:37;930.07;;;841.07;;
10890;SDS011;5498;50.928;11.598;2022-10-16T06:31:41;935.03;;;846.03;;
10890;SDS011;5498;50.928;11.598;2022-10-16T06:34:44;934.97;;;845.97;;
10890;SDS011;5498;50.928;11.598;2022-10-16T06:37:46;939.00;;;849.93;;
10890;SDS011;5498;50.928;11.598;2022-10-16T06:40:48;944.60;;;855.13;;
10890;SDS011;5498;50.928;11.598;2022-10-16T06:43:50;948.47;;;858.90;;
10890;SDS011;5498;50.928;11.598;2022-10-16T06:46:53;948.70;;;859.13;;
10890;SDS011;5498;50.928;11.598;2022-10-16T06:49:56;954.97;;;865.20;;
10890;SDS011;5498;50.928;11.598;2022-10-16T06:52:58;953.43;;;863.63;;
10890;SDS011;5498;50.928;11.598;2022-10-16T06:56:06;958.80;;;869.00;;
10890;SDS011;5498;50.928;11.598;2022-10-16T06:59:09;968.67;;;878.57;;
10890;SDS011;5498;50.928;11.598;2022-10-16T07:02:11;970.03;;;879.73;;
10890;SDS011;5498;50.928;11.598;2022-10-16T07:05:16;966.50;;;876.53;;
10890;SDS011;5498;50.928;11.598;2022-10-16T07:08:18;967.67;;;876.83;;
10890;SDS011;5498;50.928;11.598;2022-10-16T07:11:21;971.17;;;880.73;;
10890;SDS011;5498;50.928;11.598;2022-10-16T07:14:24;974.83;;;884.27;;
10890;SDS011;5498;50.928;11.598;2022-10-16T07:17:26;975.00;;;884.30;;
10890;SDS011;5498;50.928;11.598;2022-10-16T07:20:30;978.20;;;887.40;;
10890;SDS011;5498;50.928;11.598;2022-10-16T07:23:32;985.80;;;894.73;;
10890;SDS011;5498;50.928;11.598;2022-10-16T07:26:35;976.63;;;886.30;;
10890;SDS011;5498;50.928;11.598;2022-10-16T07:29:39;979.13;;;888.57;;
10890;SDS011;5498;50.928;11.598;2022-10-16T07:32:41;997.40;;;905.93;;
10890;SDS011;5498;50.928;11.598;2022-10-16T07:35:49;1006.20;;;914.00;;
10890;SDS011;5498;50.928;11.598;2022-10-16T07:38:53;1005.27;;;913.03;;
10890;SDS011;5498;50.928;11.598;2022-10-16T07:41:55;1002.87;;;911.03;;
10890;SDS011;5498;50.928;11.598;2022-10-16T07:44:57;1010.07;;;918.20;;
10890;SDS011;5498;50.928;11.598;2022-10-16T07:47:59;1009.53;;;917.73;;
10890;SDS011;5498;50.928;11.598;2022-10-16T07:51:03;1011.80;;;919.80;;
10890;SDS011;5498;50.928;11.598;2022-10-16T07:54:08;1011.10;;;919.40;;
10890;SDS011;5498;50.928;11.598;2022-10-16T07:57:10;1007.40;;;915.63;;
10890;SDS011;5498;50.928;11.598;2022-10-16T08:00:12;1008.37;;;916.60;;
10890;SDS011;5498;50.928;11.598;2022-10-16T08:03:14;1012.27;;;920.23;;
10890;SDS011;5498;50.928;11.598;2022-10-16T08:06:19;1003.33;;;911.97;;
10890;SDS011;5498;50.928;11.598;2022-10-16T08:09:22;1000.00;;;908.63;;
10890;SDS011;5498;50.928;11.598;2022-10-16T08:12:24;1000.23;;;908.87;;
10890;SDS011;5498;50.928;11.598;2022-10-16T08:15:26;993.57;;;902.73;;
10890;SDS011;5498;50.928;11.598;2022-10-16T08:18:28;998.50;;;907.63;;
10890;SDS011;5498;50.928;11.598;2022-10-16T08:21:31;989.30;;;898.93;;
10890;SDS011;5498;50.928;11.598;2022-10-16T08:24:34;998.90;;;908.00;;
10890;SDS011;5498;50.928;11.598;2022-10-16T08:27:37;989.77;;;899.40;;
10890;SDS011;5498;50.928;11.598;2022-10-16T08:30:39;996.13;;;905.37;;
10890;SDS011;5498;50.928;11.598;2022-10-16T08:33:42;1003.87;;;912.50;;
10890;SDS011;5498;50.928;11.598;2022-10-16T08:36:48;1008.87;;;917.43;;
10890;SDS011;5498;50.928;11.598;2022-10-16T08:39:50;1015.67;;;923.77;;
10890;SDS011;5498;50.928;11.598;2022-10-16T08:42:56;1013.03;;;921.07;;
10890;SDS011;5498;50.928;11.598;2022-10-16T08:46:24;1016.27;;;924.50;;
10890;SDS011;5498;50.928;11.598;2022-10-16T08:49:42;1007.77;;;916.37;;
10890;SDS011;5498;50.928;11.598;2022-10-16T08:52:56;1009.40;;;917.90;;
10890;SDS011;5498;50.928;11.598;2022-10-16T08:55:59;1018.83;;;926.83;;
10890;SDS011;5498;50.928;11.598;2022-10-16T08:59:02;1031.50;;;939.03;;
10890;SDS011;5498;50.928;11.598;2022-10-16T09:02:15;1029.80;;;937.23;;
10890;SDS011;5498;50.928;11.598;2022-10-16T09:05:33;1036.03;;;942.83;;
10890;SDS011;5498;50.928;11.598;2022-10-16T09:09:11;1043.63;;;950.23;;
10890;SDS011;5498;50.928;11.598;2022-10-16T09:12:36;1055.43;;;961.10;;
10890;SDS011;5498;50.928;11.598;2022-10-16T09:15:44;1069.27;;;974.20;;
10890;SDS011;5498;50.928;11.598;2022-10-16T09:18:58;1071.03;;;975.77;;
10890;SDS011;5498;50.928;11.598;2022-10-16T09:22:12;1085.40;;;989.17;;
10890;SDS011;5498;50.928;11.598;2022-10-16T09:25:20;1081.50;;;985.60;;
10890;SDS011;5498;50.928;11.598;2022-10-16T09:28:23;1093.40;;;996.03;;
10890;SDS011;5498;50.928;11.598;2022-10-16T09:31:26;1103.10;;;999.90;;
10890;SDS011;5498;50.928;11.598;2022-10-16T09:34:29;1106.37;;;999.90;;
10890;SDS011;5498;50.928;11.598;2022-10-16T09:37:33;1110.83;;;999.90;;
10890;SDS011;5498;50.928;11.598;2022-10-16T09:40:41;1107.30;;;999.90;;
10890;SDS011;5498;50.928;11.598;2022-10-16T09:44:00;1100.43;;;999.10;;
10890;SDS011;5498;50.928;11.598;2022-10-16T09:47:45;1119.17;;;999.90;;
10890;SDS011;5498;50.928;11.598;2022-10-16T09:50:55;1121.20;;;999.90;;
10890;SDS011;5498;50.928;11.598;2022-10-16T09:53:58;1115.77;;;999.90;;
10890;SDS011;5498;50.928;11.598;2022-10-16T09:57:07;1117.53;;;999.90;;
10890;SDS011;5498;50.928;11.598;2022-10-16T10:00:15;1114.50;;;999.90;;
10890;SDS011;5498;50.928;11.598;2022-10-16T10:03:35;1123.87;;;999.90;;
10890;SDS011;5498;50.928;11.598;2022-10-16T10:06:41;1122.60;;;999.90;;
10890;SDS011;5498;50.928;11.598;2022-10-16T10:09:46;1121.60;;;999.90;;
10890;SDS011;5498;50.928;11.598;2022-10-16T10:12:51;1125.70;;;999.90;;
10890;SDS011;5498;50.928;11.598;2022-10-16T10:15:54;1129.03;;;999.90;;
10890;SDS011;5498;50.928;11.598;2022-10-16T10:18:58;1127.77;;;999.90;;
10890;SDS011;5498;50.928;11.598;2022-10-16T10:22:00;1133.10;;;999.90;;
10890;SDS011;5498;50.928;11.598;2022-10-16T10:25:15;1144.83;;;999.90;;
10890;SDS011;5498;50.928;11.598;2022-10-16T10:28:32;1139.00;;;999.90;;
10890;SDS011;5498;50.928;11.598;2022-10-16T10:31:55;1132.50;;;999.90;;
10890;SDS011;5498;50.928;11.598;2022-10-16T10:35:19;1140.37;;;999.90;;
10890;SDS011;5498;50.928;11.598;2022-10-16T10:38:29;1144.17;;;999.90;;
10890;SDS011;5498;50.928;11.598;2022-10-16T10:45:20;1157.20;;;999.90;;
10890;SDS011;5498;50.928;11.598;2022-10-16T10:48:34;1159.40;;;999.90;;
10890;SDS011;5498;50.928;11.598;2022-10-16T10:51:54;1164.17;;;999.90;;
10890;SDS011;5498;50.928;11.598;2022-10-16T10:55:09;1158.57;;;999.90;;
10890;SDS011;5498;50.928;11.598;2022-10-16T10:58:35;1162.57;;;999.90;;
10890;SDS011;5498;50.928;11.598;2022-10-16T11:02:13;1164.20;;;999.90;;
10890;SDS011;5498;50.928;11.598;2022-10-16T11:05:27;1164.70;;;999.90;;
10890;SDS011;5498;50.928;11.598;2022-10-16T11:08:43;1169.73;;;999.90;;
10890;SDS011;5498;50.928;11.598;2022-10-16T11:11:51;1166.53;;;999.90;;
10890;SDS011;5498;50.928;11.598;2022-10-16T11:14:58;1173.53;;;999.90;;
10890;SDS011;5498;50.928;11.598;2022-10-16T11:18:07;1171.33;;;999.90;;
10890;SDS011;5498;50.928;11.598;2022-10-16T11:21:26;1171.60;;;999.90;;
10890;SDS011;5498;50.928;11.598;2022-10-16T11:24:35;1169.73;;;999.90;;
10890;SDS011;5498;50.928;11.598;2022-10-16T11:27:44;1172.73;;;999.90;;
10890;SDS011;5498;50.928;11.598;2022-10-16T11:30:53;1176.67;;;999.90;;
10890;SDS011;5498;50.928;11.598;2022-10-16T11:34:04;1169.03;;;999.90;;
10890;SDS011;5498;50.928;11.598;2022-10-16T11:37:18;1170.30;;;999.90;;
10890;SDS011;5498;50.928;11.598;2022-10-16T11:40:25;1165.27;;;999.90;;
10890;SDS011;5498;50.928;11.598;2022-10-16T11:43:34;1164.07;;;999.90;;
10890;SDS011;5498;50.928;11.598;2022-10-16T11:46:44;1162.33;;;999.90;;
10890;SDS011;5498;50.928;11.598;2022-10-16T11:49:55;1167.10;;;999.90;;
10890;SDS011;5498;50.928;11.598;2022-10-16T11:53:03;1166.37;;;999.90;;
10890;SDS011;5498;50.928;11.598;2022-10-16T11:56:18;1163.90;;;999.90;;
10890;SDS011;5498;50.928;11.598;2022-10-16T11:59:24;1167.67;;;999.90;;
10890;SDS011;5498;50.928;11.598;2022-10-16T12:02:38;1165.07;;;999.90;;
10890;SDS011;5498;50.928;11.598;2022-10-16T12:06:01;1166.53;;;999.90;;
10890;SDS011;5498;50.928;11.598;2022-10-16T12:09:16;1162.50;;;999.90;;
10890;SDS011;5498;50.928;11.598;2022-10-16T12:12:24;1161.83;;;999.90;;
10890;SDS011;5498;50.928;11.598;2022-10-16T12:15:28;1164.80;;;999.90;;
10890;SDS011;5498;50.928;11.598;2022-10-16T12:18:32;1162.10;;;999.90;;
10890;SDS011;5498;50.928;11.598;2022-10-16T12:21:36;1165.57;;;999.90;;
10890;SDS011;5498;50.928;11.598;2022-10-16T12:24:45;1164.27;;;999.90;;
10890;SDS011;5498;50.928;11.598;2022-10-16T12:28:04;1170.37;;;999.90;;
10890;SDS011;5498;50.928;11.598;2022-10-16T12:31:18;1172.07;;;999.90;;
10890;SDS011;5498;50.928;11.598;2022-10-16T12:34:22;1174.53;;;999.90;;
10890;SDS011;5498;50.928;11.598;2022-10-16T12:37:31;1177.93;;;999.90;;
10890;SDS011;5498;50.928;11.598;2022-10-16T12:40:36;1181.03;;;999.90;;
10890;SDS011;5498;50.928;11.598;2022-10-16T12:43:40;1179.70;;;999.90;;
10890;SDS011;5498;50.928;11.598;2022-10-16T12:46:45;1174.53;;;999.90;;
10890;SDS011;5498;50.928;11.598;2022-10-16T12:53:38;1169.67;;;999.90;;
10890;SDS011;5498;50.928;11.598;2022-10-16T12:56:41;1185.97;;;999.90;;
10890;SDS011;5498;50.928;11.598;2022-10-16T13:00:04;1179.53;;;999.90;;
10890;SDS011;5498;50.928;11.598;2022-10-16T13:03:27;1180.83;;;999.90;;
10890;SDS011;5498;50.928;11.598;2022-10-16T13:06:51;1172.53;;;999.90;;
10890;SDS011;5498;50.928;11.598;2022-10-16T13:10:04;1178.93;;;999.90;;
10890;SDS011;5498;50.928;11.598;2022-10-16T13:13:22;1175.87;;;999.90;;
10890;SDS011;5498;50.928;11.598;2022-10-16T13:17:04;1170.20;;;999.90;;
10890;SDS011;5498;50.928;11.598;2022-10-16T13:20:14;1172.13;;;999.90;;
10890;SDS011;5498;50.928;11.598;2022-10-16T13:23:24;1173.17;;;999.90;;
10890;SDS011;5498;50.928;11.598;2022-10-16T13:26:36;1174.53;;;999.90;;
10890;SDS011;5498;50.928;11.598;2022-10-16T13:29:48;1172.30;;;999.90;;
10890;SDS011;5498;50.928;11.598;2022-10-16T13:33:00;1174.50;;;999.90;;
10890;SDS011;5498;50.928;11.598;2022-10-16T13:36:20;1184.17;;;999.90;;
10890;SDS011;5498;50.928;11.598;2022-10-16T13:39:25;1177.87;;;999.90;;
10890;SDS011;5498;50.928;11.598;2022-10-16T13:42:29;1182.83;;;999.90;;
10890;SDS011;5498;50.928;11.598;2022-10-16T13:45:31;1186.37;;;999.90;;
10890;SDS011;5498;50.928;11.598;2022-10-16T13:48:33;1190.90;;;999.90;;
10890;SDS011;5498;50.928;11.598;2022-10-16T13:51:35;1190.87;;;999.90;;
10890;SDS011;5498;50.928;11.598;2022-10-16T13:54:38;1187.20;;;999.90;;
10890;SDS011;5498;50.928;11.598;2022-10-16T13:57:43;1186.97;;;999.90;;
10890;SDS011;5498;50.928;11.598;2022-10-16T14:00:52;1182.20;;;999.90;;
10890;SDS011;5498;50.928;11.598;2022-10-16T14:04:01;1189.03;;;999.90;;
10890;SDS011;5498;50.928;11.598;2022-10-16T14:07:11;1192.37;;;999.90;;
10890;SDS011;5498;50.928;11.598;2022-10-16T14:10:20;1188.67;;;999.90;;
10890;SDS011;5498;50.928;11.598;2022-10-16T14:13:34;1184.70;;;999.90;;
10890;SDS011;5498;50.928;11.598;2022-10-16T14:16:39;1189.53;;;999.90;;
10890;SDS011;5498;50.928;11.598;2022-10-16T14:19:45;1193.10;;;999.90;;
10890;SDS011;5498;50.928;11.598;2022-10-16T14:22:48;1181.87;;;999.90;;
10890;SDS011;5498;50.928;11.598;2022-10-16T14:29:27;1188.03;;;999.90;;
10890;SDS011;5498;50.928;11.598;2022-10-16T14:32:31;1185.73;;;999.90;;
10890;SDS011;5498;50.928;11.598;2022-10-16T14:35:35;1177.27;;;999.90;;
10890;SDS011;5498;50.928;11.598;2022-10-16T14:38:41;1186.90;;;999.90;;
10890;SDS011;5498;50.928;11.598;2022-10-16T14:41:54;1189.13;;;999.90;;
10890;SDS011;5498;50.928;11.598;2022-10-16T14:45:00;1186.47;;;999.90;;
10890;SDS011;5498;50.928;11.598;2022-10-16T14:48:03;1192.23;;;999.90;;
10890;SDS011;5498;50.928;11.598;2022-10-16T14:51:14;1186.07;;;999.90;;
10890;SDS011;5498;50.928;11.598;2022-10-16T14:54:17;1191.00;;;999.90;;
10890;SDS011;5498;50.928;11.598;2022-10-16T14:57:20;1185.63;;;999.90;;
10890;SDS011;5498;50.928;11.598;2022-10-16T15:00:26;1190.17;;;999.90;;
10890;SDS011;5498;50.928;11.598;2022-10-16T15:03:28;1191.03;;;999.90;;
10890;SDS011;5498;50.928;11.598;2022-10-16T15:06:30;1188.10;;;999.90;;
10890;SDS011;5498;50.928;11.598;2022-10-16T15:09:32;1190.03;;;999.90;;
10890;SDS011;5498;50.928;11.598;2022-10-16T15:12:34;1191.53;;;999.90;;
10890;SDS011;5498;50.928;11.598;2022-10-16T15:15:38;1191.17;;;999.90;;
10890;SDS011;5498;50.928;11.598;2022-10-16T15:18:44;1185.10;;;999.90;;
10890;SDS011;5498;50.928;11.598;2022-10-16T15:21:46;1185.87;;;999.90;;
10890;SDS011;5498;50.928;11.598;2022-10-16T15:24:49;1188.53;;;999.90;;
10890;SDS011;5498;50.928;11.598;2022-10-16T15:27:51;1186.73;;;999.90;;
10890;SDS011;5498;50.928;11.598;2022-10-16T15:30:55;1182.23;;;999.90;;
10890;SDS011;5498;50.928;11.598;2022-10-16T15:33:58;1190.60;;;999.90;;
10890;SDS011;5498;50.928;11.598;2022-10-16T15:37:04;1187.20;;;999.90;;
10890;SDS011;5498;50.928;11.598;2022-10-16T15:40:06;1183.47;;;999.90;;
10890;SDS011;5498;50.928;11.598;2022-10-16T15:43:10;1181.80;;;999.90;;
10890;SDS011;5498;50.928;11.598;2022-10-16T15:46:13;1176.30;;;999.90;;
10890;SDS011;5498;50.928;11.598;2022-10-16T15:49:16;1182.67;;;999.90;;
10890;SDS011;5498;50.928;11.598;2022-10-16T15:52:18;1174.23;;;999.90;;
10890;SDS011;5498;50.928;11.598;2022-10-16T15:55:20;1174.00;;;999.90;;
10890;SDS011;5498;50.928;11.598;2022-10-16T15:58:22;1161.87;;;999.90;;
10890;SDS011;5498;50.928;11.598;2022-10-16T16:01:25;1159.37;;;999.90;;
10890;SDS011;5498;50.928;11.598;2022-10-16T16:04:29;1158.93;;;999.90;;
10890;SDS011;5498;50.928;11.598;2022-10-16T16:07:32;1160.37;;;999.90;;
10890;SDS011;5498;50.928;11.598;2022-10-16T16:10:34;1152.13;;;999.90;;
10890;SDS011;5498;50.928;11.598;2022-10-16T16:13:36;1152.43;;;999.90;;
10890;SDS011;5498;50.928;11.598;2022-10-16T16:16:40;1148.30;;;999.90;;
10890;SDS011;5498;50.928;11.598;2022-10-16T16:19:42;1149.13;;;999.90;;
10890;SDS011;5498;50.928;11.598;2022-10-16T16:22:44;1144.67;;;999.90;;
10890;SDS011;5498;50.928;11.598;2022-10-16T16:26:01;1145.10;;;999.90;;
10890;SDS011;5498;50.928;11.598;2022-10-16T16:29:05;1143.07;;;999.90;;
10890;SDS011;5498;50.928;11.598;2022-10-16T16:32:09;1145.83;;;999.90;;
10890;SDS011;5498;50.928;11.598;2022-10-16T16:35:11;1151.87;;;999.90;;
10890;SDS011;5498;50.928;11.598;2022-10-16T16:38:13;1151.73;;;999.90;;
10890;SDS011;5498;50.928;11.598;2022-10-16T16:41:16;1153.90;;;999.90;;
10890;SDS011;5498;50.928;11.598;2022-10-16T16:44:19;1147.47;;;999.90;;
10890;SDS011;5498;50.928;11.598;2022-10-16T16:47:23;1152.07;;;999.90;;
10890;SDS011;5498;50.928;11.598;2022-10-16T16:50:25;1147.20;;;999.90;;
10890;SDS011;5498;50.928;11.598;2022-10-16T16:53:27;1155.57;;;999.90;;
10890;SDS011;5498;50.928;11.598;2022-10-16T16:56:29;1138.00;;;999.90;;
10890;SDS011;5498;50.928;11.598;2022-10-16T16:59:31;1141.90;;;999.90;;
10890;SDS011;5498;50.928;11.598;2022-10-16T17:02:35;1129.07;;;999.90;;
10890;SDS011;5498;50.928;11.598;2022-10-16T17:05:37;1141.33;;;999.90;;
10890;SDS011;5498;50.928;11.598;2022-10-16T17:08:39;1130.67;;;999.90;;
10890;SDS011;5498;50.928;11.598;2022-10-16T17:11:41;1118.23;;;999.90;;
10890;SDS011;5498;50.928;11.598;2022-10-16T17:14:44;1122.13;;;999.90;;
10890;SDS011;5498;50.928;11.598;2022-10-16T17:17:47;1116.73;;;999.90;;
10890;SDS011;5498;50.928;11.598;2022-10-16T17:20:50;1107.97;;;999.90;;
10890;SDS011;5498;50.928;11.598;2022-10-16T17:23:52;1105.63;;;999.90;;
10890;SDS011;5498;50.928;11.598;2022-10-16T17:26:54;1107.57;;;999.90;;
10890;SDS011;5498;50.928;11.598;2022-10-16T17:29:57;1101.70;;;999.27;;
10890;SDS011;5498;50.928;11.598;2022-10-16T17:33:00;1109.97;;;999.90;;
10890;SDS011;5498;50.928;11.598;2022-10-16T17:36:02;1102.53;;;999.40;;
10890;SDS011;5498;50.928;11.598;2022-10-16T17:39:07;1108.57;;;999.90;;